Joseph, Oregon
Current Conditions -  °F | °C
As of 11:35 PM on Wednesday 22 Oct 2014 (Local Time) from KLGD Reporting Station
Overcast Overcast  
Wind Chill: 57°   Ceiling: 8000
Heat Index: 57°   Visibility: 10mi
Dew Point: 32°   Wind: 16mph
Humidity: 38%   Direction: 180°S
Pressure: 29.86"   Gusts: 22mph
Location:  45.35°N, 117.23°W
Report Text: KLGD 230635Z AUTO 18014G19KT 10SM OVC080 14/00 A2986 RMK AO1
Loading
Personal Weather Stations






























Interactive Weather Map
Tropical Storm Tracking
New forecast layout! Learn more

10-Day Weather Forecast

Advertisements
Track Severe Weather on mobile